Time;durP1;ratioP1;P1;durP2;ratioP2;P2;SDS_P1;SDS_P2;PMS_P1;PMS_P2;Temp;Humidity;BMP_temperature;BMP_pressure;BME280_temperature;BME280_humidity;BME280_pressure;Samples;Min_cycle;Max_cycle;Signal;HPM_P1;HPM_P2
2021/03/22 00:02:19;;;;;;;15.70;10.98;;;;;;;0.62;83.58;98246.61;2190481;80;21202;-78
2021/03/22 00:05:21;;;;;;;21.77;11.50;;;;;;;0.56;83.34;98247.95;2212012;80;21147;-79
2021/03/22 00:08:23;;;;;;;17.42;9.65;;;;;;;0.52;83.35;98250.42;2192747;80;21340;-78
2021/03/22 00:11:24;;;;;;;14.00;8.98;;;;;;;0.46;83.30;98253.53;2212157;80;21305;-79
2021/03/22 00:14:26;;;;;;;11.53;8.48;;;;;;;0.42;83.29;98250.38;2198670;80;21194;-79
2021/03/22 00:17:27;;;;;;;14.20;8.88;;;;;;;0.42;82.99;98261.15;2222565;80;21202;-80
2021/03/22 00:20:29;;;;;;;13.32;9.20;;;;;;;0.42;83.24;98262.44;2224875;80;21321;-78
2021/03/22 00:23:31;;;;;;;18.95;10.32;;;;;;;0.43;83.16;98259.73;2208440;80;21665;-78
2021/03/22 00:26:32;;;;;;;16.70;10.82;;;;;;;0.45;83.24;98268.61;2219230;80;21147;-79
2021/03/22 00:29:34;;;;;;;18.30;10.72;;;;;;;0.43;83.26;98267.45;2216847;80;21284;-81
2021/03/22 00:32:36;;;;;;;11.57;8.50;;;;;;;0.40;83.01;98263.04;2214292;80;21305;-79
2021/03/22 00:35:37;;;;;;;16.87;8.68;;;;;;;0.35;82.93;98273.70;2190642;80;21348;-78
2021/03/22 00:38:39;;;;;;;13.20;8.78;;;;;;;0.32;82.65;98271.87;2223491;80;21333;-79
2021/03/22 00:41:40;;;;;;;15.45;8.53;;;;;;;0.30;82.74;98264.27;2222276;80;21183;-78
2021/03/22 00:44:42;;;;;;;13.08;7.28;;;;;;;0.30;82.94;98268.61;2228445;80;21305;-79
2021/03/22 00:47:43;;;;;;;18.92;9.48;;;;;;;0.26;83.27;98285.58;2229563;80;21164;-80
2021/03/22 00:50:45;;;;;;;9.45;6.62;;;;;;;0.22;83.20;98274.38;2229970;80;21210;-79
2021/03/22 00:53:46;;;;;;;13.32;8.33;;;;;;;0.19;83.44;98295.23;2213869;80;21150;-79
2021/03/22 00:56:48;;;;;;;12.20;7.72;;;;;;;0.15;83.34;98292.08;2205716;80;21271;-79
2021/03/22 00:59:50;;;;;;;16.42;7.70;;;;;;;0.11;83.06;98289.89;2199163;80;21257;-80
2021/03/22 01:02:51;;;;;;;12.37;7.08;;;;;;;0.06;83.29;98291.53;2187658;80;21183;-78
2021/03/22 01:05:53;;;;;;;11.60;7.90;;;;;;;0.04;83.31;98289.55;2220194;80;21187;-79
2021/03/22 01:08:55;;;;;;;13.40;8.80;;;;;;;0.01;83.40;98302.69;2211489;80;21194;-79
2021/03/22 01:11:57;;;;;;;12.47;7.10;;;;;;;-0.02;83.14;98296.47;2228071;80;21147;-79
2021/03/22 01:14:58;;;;;;;13.30;7.20;;;;;;;-0.02;83.05;98302.44;2214944;80;21162;-80
2021/03/22 01:18:00;;;;;;;11.35;8.18;;;;;;;-0.08;82.98;98306.81;2229625;80;21272;-79
2021/03/22 01:21:01;;;;;;;14.73;9.38;;;;;;;-0.16;82.88;98311.74;2202419;80;21396;-79
2021/03/22 01:24:03;;;;;;;15.03;8.08;;;;;;;-0.25;83.12;98306.51;2229585;80;21186;-79
2021/03/22 01:27:04;;;;;;;12.00;7.35;;;;;;;-0.31;83.08;98301.37;2232046;80;21339;-78
2021/03/22 01:30:06;;;;;;;12.28;7.70;;;;;;;-0.38;83.30;98305.35;2220136;80;21167;-76
2021/03/22 01:33:11;;;;;;;13.98;8.40;;;;;;;-0.46;83.12;98302.56;2225473;80;21582;-79
2021/03/22 01:36:11;;;;;;;21.05;8.90;;;;;;;-0.56;83.55;98298.61;2205179;80;21170;-80
2021/03/22 01:39:13;;;;;;;11.12;7.75;;;;;;;-0.66;83.25;98303.65;2211623;80;21336;-78
2021/03/22 01:42:15;;;;;;;9.53;6.72;;;;;;;-0.73;83.57;98302.95;2230113;80;21182;-79
2021/03/22 01:45:16;;;;;;;11.70;6.28;;;;;;;-0.83;83.43;98303.31;2232708;80;21296;-80
2021/03/22 01:48:18;;;;;;;14.53;7.40;;;;;;;-0.94;83.57;98305.42;2226946;80;21154;-79
2021/03/22 01:51:20;;;;;;;15.98;7.47;;;;;;;-1.02;83.70;98309.04;2225254;80;21325;-79
2021/03/22 01:54:21;;;;;;;11.83;8.33;;;;;;;-1.12;84.00;98305.53;2207761;80;21178;-79
2021/03/22 01:57:23;;;;;;;16.52;8.18;;;;;;;-1.22;83.56;98307.52;2220200;80;21154;-78
2021/03/22 02:00:27;;;;;;;16.67;8.90;;;;;;;-1.31;83.93;98305.63;2224415;80;21198;-78
2021/03/22 02:03:28;;;;;;;14.40;8.63;;;;;;;-1.37;83.64;98309.12;2182654;80;21276;-79
2021/03/22 02:06:31;;;;;;;15.53;8.60;;;;;;;-1.47;84.12;98310.27;2222915;80;21332;-80
2021/03/22 02:09:32;;;;;;;16.07;7.80;;;;;;;-1.57;84.36;98308.03;2210154;80;21709;-79
2021/03/22 02:12:34;;;;;;;16.90;9.18;;;;;;;-1.66;84.48;98318.98;2199876;80;21272;-79
2021/03/22 02:15:36;;;;;;;20.43;10.60;;;;;;;-1.75;84.66;98315.33;2195296;80;21748;-80
2021/03/22 02:18:37;;;;;;;15.58;7.85;;;;;;;-1.83;84.45;98315.06;2211090;80;21153;-79
2021/03/22 02:21:39;;;;;;;14.87;9.00;;;;;;;-1.88;84.72;98319.73;2190579;80;21324;-79
2021/03/22 02:24:41;;;;;;;20.02;10.45;;;;;;;-1.92;84.50;98317.02;2190493;80;21198;-78
2021/03/22 02:27:42;;;;;;;17.12;9.43;;;;;;;-1.92;84.38;98314.02;2193148;80;21297;-79
2021/03/22 02:30:44;;;;;;;17.17;10.23;;;;;;;-1.92;84.69;98319.58;2225089;80;21359;-79
2021/03/22 02:33:45;;;;;;;21.42;9.88;;;;;;;-1.92;84.88;98322.15;2215020;80;21325;-79
2021/03/22 02:36:47;;;;;;;20.12;10.85;;;;;;;-1.94;84.71;98326.11;2210935;80;21324;-79
2021/03/22 02:39:48;;;;;;;21.00;10.43;;;;;;;-1.93;84.74;98334.16;2224986;80;21532;-78
2021/03/22 02:42:50;;;;;;;21.37;9.18;;;;;;;-1.89;84.87;98334.78;2199091;80;21308;-79
2021/03/22 02:45:52;;;;;;;16.42;9.25;;;;;;;-1.86;84.81;98337.94;2216836;80;21283;-79
2021/03/22 02:48:53;;;;;;;23.05;10.10;;;;;;;-1.80;84.87;98344.38;2195137;80;21347;-79
2021/03/22 02:51:55;;;;;;;16.52;9.53;;;;;;;-1.77;84.86;98344.97;2196658;80;21222;-79
2021/03/22 02:54:56;;;;;;;16.60;9.33;;;;;;;-1.74;84.80;98355.03;2214647;80;21316;-79
2021/03/22 02:57:58;;;;;;;18.52;10.08;;;;;;;-1.74;84.53;98353.75;2206569;80;21583;-79
2021/03/22 03:01:00;;;;;;;12.43;7.33;;;;;;;-1.69;84.44;98361.10;2203676;80;21138;-79
2021/03/22 03:04:01;;;;;;;14.53;8.63;;;;;;;-1.65;84.72;98368.92;2212183;80;21794;-79
2021/03/22 03:07:03;;;;;;;18.32;9.83;;;;;;;-1.62;84.21;98360.20;2216491;80;21348;-78
2021/03/22 03:10:05;;;;;;;16.70;9.18;;;;;;;-1.58;84.06;98368.02;2217348;80;21552;-78
2021/03/22 03:13:06;;;;;;;18.57;9.33;;;;;;;-1.55;83.97;98374.23;2204599;80;21304;-79
2021/03/22 03:16:08;;;;;;;12.58;7.28;;;;;;;-1.53;83.86;98373.19;2220930;80;21289;-80
2021/03/22 03:19:09;;;;;;;20.75;10.45;;;;;;;-1.55;83.84;98377.63;2208477;80;21195;-78
2021/03/22 03:22:11;;;;;;;17.07;8.48;;;;;;;-1.53;83.78;98375.76;2201368;80;21182;-78
2021/03/22 03:25:13;;;;;;;16.02;10.10;;;;;;;-1.54;83.67;98375.41;2223891;80;21178;-78
2021/03/22 03:28:15;;;;;;;14.73;8.38;;;;;;;-1.56;83.69;98383.66;2209780;80;21764;-79
2021/03/22 03:31:16;;;;;;;17.40;9.95;;;;;;;-1.57;83.73;98379.92;2190353;80;21295;-79
2021/03/22 03:34:18;;;;;;;16.52;10.78;;;;;;;-1.58;83.61;98386.00;2190606;80;21764;-79
2021/03/22 03:37:20;;;;;;;15.45;10.35;;;;;;;-1.58;83.55;98382.14;2199768;80;21134;-78
2021/03/22 03:40:21;;;;;;;16.85;10.03;;;;;;;-1.61;83.55;98382.38;2227028;80;21196;-79
2021/03/22 03:43:23;;;;;;;16.97;9.55;;;;;;;-1.62;83.44;98386.70;2223282;80;21603;-79
2021/03/22 03:46:25;;;;;;;19.05;9.68;;;;;;;-1.63;83.56;98400.93;2218099;80;21143;-79
2021/03/22 03:49:26;;;;;;;14.58;8.55;;;;;;;-1.65;83.41;98397.63;2207333;80;21280;-79
2021/03/22 03:52:28;;;;;;;16.05;8.13;;;;;;;-1.66;83.40;98404.52;2202661;80;21304;-78
2021/03/22 03:55:29;;;;;;;19.32;8.98;;;;;;;-1.71;83.44;98406.61;2205822;80;21336;-78
2021/03/22 03:58:31;;;;;;;21.33;9.63;;;;;;;-1.78;83.29;98408.79;2201112;80;21200;-78
2021/03/22 04:01:32;;;;;;;16.60;9.85;;;;;;;-1.83;83.31;98412.16;2190757;80;21214;-79
2021/03/22 04:04:34;;;;;;;16.60;9.45;;;;;;;-1.90;83.24;98417.38;2227473;80;21284;-79
2021/03/22 04:07:35;;;;;;;14.95;8.73;;;;;;;-1.97;83.25;98427.70;2216709;80;21299;-79
2021/03/22 04:10:37;;;;;;;14.93;8.80;;;;;;;-2.07;83.26;98431.37;2195176;80;21304;-78
2021/03/22 04:13:39;;;;;;;17.12;9.10;;;;;;;-2.16;83.46;98435.05;2225599;80;21210;-79
2021/03/22 04:16:40;;;;;;;20.00;10.13;;;;;;;-2.28;83.51;98440.58;2196441;80;21300;-80
2021/03/22 04:19:42;;;;;;;23.92;11.93;;;;;;;-2.33;83.72;98444.72;2206230;80;21223;-79
2021/03/22 04:22:44;;;;;;;21.33;11.43;;;;;;;-2.38;83.58;98445.52;2230830;80;21115;-78
2021/03/22 04:25:45;;;;;;;17.50;10.60;;;;;;;-2.40;83.55;98447.80;2230254;80;21293;-79
2021/03/22 04:28:47;;;;;;;23.83;11.18;;;;;;;-2.44;83.54;98457.46;2213231;80;21198;-78
2021/03/22 04:31:49;;;;;;;23.62;10.82;;;;;;;-2.51;83.53;98453.66;2204093;80;21312;-78
2021/03/22 04:34:50;;;;;;;20.48;11.78;;;;;;;-2.54;83.77;98461.58;2229648;80;21147;-78
2021/03/22 04:37:52;;;;;;;22.80;10.45;;;;;;;-2.55;83.63;98467.63;2216960;80;21162;-79
2021/03/22 04:40:54;;;;;;;26.35;11.90;;;;;;;-2.57;83.58;98466.89;2196430;80;21293;-80
2021/03/22 04:43:55;;;;;;;29.48;13.22;;;;;;;-2.61;83.47;98476.54;2210617;80;21308;-79
2021/03/22 04:46:57;;;;;;;31.00;16.00;;;;;;;-2.63;83.50;98471.98;2202065;80;21308;-79
2021/03/22 04:49:58;;;;;;;43.02;19.80;;;;;;;-2.62;83.46;98470.23;2232140;80;21807;-79
2021/03/22 04:53:00;;;;;;;25.35;12.35;;;;;;;-2.67;83.41;98482.06;2206494;80;21290;-79
2021/03/22 04:56:07;;;;;;;15.55;9.45;;;;;;;-2.65;83.41;98481.95;2222550;80;21145;-79
2021/03/22 04:59:05;;;;;;;21.40;12.03;;;;;;;-2.67;83.34;98482.53;2216015;80;21604;-80
2021/03/22 05:02:07;;;;;;;22.13;11.35;;;;;;;-2.69;83.40;98490.78;2229870;80;21186;-79
2021/03/22 05:05:08;;;;;;;21.30;11.88;;;;;;;-2.69;83.27;98496.73;2222300;80;21293;-79
2021/03/22 05:08:10;;;;;;;24.65;12.63;;;;;;;-2.67;83.17;98494.88;2222425;80;21317;-79
2021/03/22 05:11:11;;;;;;;26.50;12.68;;;;;;;-2.67;83.15;98500.01;2208067;80;21328;-79
2021/03/22 05:14:13;;;;;;;28.92;15.13;;;;;;;-2.60;83.01;98504.27;2230285;80;21190;-79
2021/03/22 05:17:15;;;;;;;26.00;14.30;;;;;;;-2.53;83.04;98510.64;2204945;80;21186;-79
2021/03/22 05:20:16;;;;;;;32.95;15.65;;;;;;;-2.44;82.91;98515.62;2205603;80;21238;-78
2021/03/22 05:23:18;;;;;;;39.67;16.23;;;;;;;-2.38;82.76;98512.19;2218555;80;21122;-79
2021/03/22 05:26:19;;;;;;;38.08;18.10;;;;;;;-2.40;82.49;98518.32;2213460;80;21204;-79
2021/03/22 05:29:21;;;;;;;51.68;24.15;;;;;;;-2.31;82.63;98513.39;2211183;80;21347;-79
2021/03/22 05:32:23;;;;;;;54.27;24.75;;;;;;;-2.24;82.40;98522.78;2228201;80;21179;-79
2021/03/22 05:35:24;;;;;;;50.30;20.48;;;;;;;-2.10;82.28;98518.02;2218438;80;21320;-80
2021/03/22 05:38:26;;;;;;;43.92;18.25;;;;;;;-2.00;81.96;98516.45;2227082;80;21225;-79
2021/03/22 05:41:27;;;;;;;33.60;15.20;;;;;;;-1.94;81.82;98522.43;2221450;80;21127;-78
2021/03/22 05:44:29;;;;;;;34.45;17.82;;;;;;;-1.85;81.83;98525.64;2195136;80;21233;-79
2021/03/22 05:47:31;;;;;;;52.38;21.97;;;;;;;-1.69;81.79;98536.14;2205754;80;21328;-79
2021/03/22 05:50:33;;;;;;;55.10;21.40;;;;;;;-1.53;81.61;98532.87;2219494;80;21186;-79
2021/03/22 05:53:35;;;;;;;64.77;26.12;;;;;;;-1.39;81.25;98531.88;2191598;80;21304;-77
2021/03/22 05:56:38;;;;;;;56.45;23.65;;;;;;;-1.30;80.89;98537.18;2222327;80;21305;-79
2021/03/22 05:59:40;;;;;;;71.85;28.07;;;;;;;-1.12;80.65;98536.80;2196165;80;21270;-79
2021/03/22 06:02:44;;;;;;;82.65;32.50;;;;;;;-0.98;80.51;98537.45;2219373;80;21194;-78
2021/03/22 06:05:52;;;;;;;68.85;27.32;;;;;;;-0.89;80.26;98538.53;2217542;80;21689;-81
2021/03/22 06:08:59;;;;;;;58.98;25.23;;;;;;;-0.74;79.97;98550.25;2210915;80;21305;-80
2021/03/22 06:12:08;;;;;;;45.10;21.30;;;;;;;-0.67;79.82;98555.31;2202562;80;21198;-76
2021/03/22 06:15:15;;;;;;;31.85;16.35;;;;;;;-0.52;79.84;98557.70;2186905;80;21183;-82
2021/03/22 06:18:17;;;;;;;29.92;13.83;;;;;;;-0.37;79.76;98558.64;2220970;80;21186;-78
2021/03/22 06:21:23;;;;;;;20.77;11.97;;;;;;;-0.24;79.54;98556.45;2214884;80;21698;-81
2021/03/22 06:24:25;;;;;;;28.55;13.72;;;;;;;-0.11;78.75;98555.41;2216942;80;21836;-81
2021/03/22 06:27:27;;;;;;;18.95;9.88;;;;;;;-0.08;78.96;98564.20;2210431;80;21336;-80
2021/03/22 06:30:28;;;;;;;16.67;8.93;;;;;;;0.03;78.73;98572.86;2222176;80;21209;-78
2021/03/22 06:33:30;;;;;;;23.15;10.88;;;;;;;0.15;78.58;98568.87;2202119;80;21309;-80
2021/03/22 06:36:31;;;;;;;22.02;10.60;;;;;;;0.20;77.61;98576.27;2223112;80;21735;-80
2021/03/22 06:39:33;;;;;;;19.15;9.60;;;;;;;0.21;77.76;98577.42;2223272;80;21313;-80
2021/03/22 06:42:35;;;;;;;14.73;9.75;;;;;;;0.27;77.47;98578.69;2193926;80;21367;-81
2021/03/22 06:45:36;;;;;;;16.93;9.50;;;;;;;0.38;77.83;98582.57;2190479;80;21815;-81
2021/03/22 06:48:38;;;;;;;16.37;9.73;;;;;;;0.48;77.26;98589.12;2198197;80;21294;-82
2021/03/22 06:51:39;;;;;;;14.18;7.97;;;;;;;0.56;77.12;98595.78;2223996;80;21327;-78
2021/03/22 06:54:41;;;;;;;25.57;11.12;;;;;;;0.69;76.50;98595.64;2195220;80;21314;-80
2021/03/22 06:57:43;;;;;;;17.05;10.28;;;;;;;0.76;76.67;98599.38;2216742;80;21332;-80
2021/03/22 07:00:47;;;;;;;14.93;8.43;;;;;;;0.89;76.13;98596.17;2218450;80;21142;-83
2021/03/22 07:03:49;;;;;;;19.10;9.45;;;;;;;0.97;76.18;98598.97;2228813;80;21309;-83
2021/03/22 07:06:53;;;;;;;17.07;9.75;;;;;;;1.11;76.36;98601.75;2218931;80;21332;-83
2021/03/22 07:09:55;;;;;;;17.62;10.05;;;;;;;1.21;75.43;98605.70;2218135;80;21669;-81
2021/03/22 07:13:00;;;;;;;18.32;9.60;;;;;;;1.35;75.27;98607.97;2195182;80;21343;-80
2021/03/22 07:16:02;;;;;;;16.35;10.08;;;;;;;1.37;75.04;98606.93;2220810;80;21151;-82
2021/03/22 07:19:06;;;;;;;31.20;14.18;;;;;;;1.48;73.17;98600.89;2212180;80;21328;-80
2021/03/22 07:22:12;;;;;;;36.42;18.35;;;;;;;1.51;73.99;98598.05;2230280;80;21155;-81
2021/03/22 07:25:13;;;;;;;39.67;20.05;;;;;;;1.60;73.33;98601.17;2203122;80;21344;-80
2021/03/22 07:28:32;;;;;;;41.05;18.77;;;;;;;1.76;73.89;98608.48;2217879;80;21340;-81
2021/03/22 07:31:35;;;;;;;21.50;10.10;;;;;;;1.92;73.65;98607.57;2229855;80;21631;-82
2021/03/22 07:34:37;;;;;;;16.73;7.85;;;;;;;1.98;72.56;98610.09;2215634;80;21182;-82
2021/03/22 07:37:38;;;;;;;22.22;8.25;;;;;;;2.09;72.11;98607.91;2217166;80;21166;-81
2021/03/22 07:40:40;;;;;;;19.87;9.33;;;;;;;2.20;72.67;98609.14;2234869;80;21288;-82
2021/03/22 07:43:43;;;;;;;12.30;7.55;;;;;;;2.30;72.32;98605.30;2215198;80;21704;-81
2021/03/22 07:46:46;;;;;;;16.25;6.85;;;;;;;2.47;71.40;98601.63;2216984;80;21265;-82
2021/03/22 07:49:50;;;;;;;11.20;5.90;;;;;;;2.58;71.08;98598.59;2215806;80;21340;-80
2021/03/22 07:52:52;;;;;;;10.20;6.00;;;;;;;2.67;69.93;98601.21;2216713;80;21131;-81
2021/03/22 07:55:53;;;;;;;10.20;6.15;;;;;;;2.72;70.42;98608.08;2215899;80;21194;-82
2021/03/22 07:58:55;;;;;;;8.28;4.53;;;;;;;2.79;69.51;98609.19;2195179;80;21336;-81
2021/03/22 08:01:57;;;;;;;10.68;5.35;;;;;;;2.84;68.89;98610.92;2210613;80;21147;-81
2021/03/22 08:04:59;;;;;;;13.80;8.15;;;;;;;2.87;68.31;98613.70;2219380;80;21776;-81
2021/03/22 08:08:01;;;;;;;11.25;7.47;;;;;;;2.94;69.12;98604.95;2218403;80;21276;-81
2021/03/22 08:14:58;;;;;;;7.95;4.70;;;;;;;3.18;68.95;98614.42;1985207;89;21205;-83
2021/03/22 08:18:00;;;;;;;4.97;2.87;;;;;;;3.30;68.06;98610.77;1984954;89;21221;-81
2021/03/22 08:21:02;;;;;;;4.20;2.80;;;;;;;3.38;66.36;98617.83;1989998;89;21229;-80
2021/03/22 08:24:03;;;;;;;4.20;2.58;;;;;;;3.42;66.86;98612.73;1984696;89;21192;-80
2021/03/22 08:27:05;;;;;;;6.25;2.90;;;;;;;3.54;66.01;98616.81;1983383;89;21243;-81
2021/03/22 08:30:09;;;;;;;7.25;5.03;;;;;;;3.60;65.81;98626.63;1986979;89;21253;-81
2021/03/22 08:33:24;;;;;;;9.10;5.45;;;;;;;3.73;64.14;98617.75;2277240;77;22015;-82
2021/03/22 08:36:25;;;;;;;10.18;6.25;;;;;;;3.72;63.76;98623.41;2226361;80;21663;-81
2021/03/22 08:39:27;;;;;;;7.33;3.70;;;;;;;3.83;64.54;98621.14;2226576;80;21350;-82
2021/03/22 08:42:28;;;;;;;5.03;3.35;;;;;;;4.07;64.03;98624.58;2226251;80;21290;-83
2021/03/22 08:45:30;;;;;;;7.60;3.67;;;;;;;4.13;58.46;98627.43;2226495;80;21275;-83
2021/03/22 08:48:32;;;;;;;7.00;3.30;;;;;;;4.21;62.12;98630.14;2226585;80;21682;-86
2021/03/22 08:51:33;;;;;;;8.73;2.98;;;;;;;4.16;58.54;98636.21;2226136;80;21175;-81
2021/03/22 08:54:35;;;;;;;3.08;2.72;;;;;;;4.11;58.32;98640.98;2226523;80;21738;-81
2021/03/22 08:57:37;;;;;;;5.50;3.67;;;;;;;4.05;58.72;98640.75;2226029;80;21294;-81
2021/03/22 09:00:40;;;;;;;6.58;3.12;;;;;;;4.08;58.25;98650.82;2226182;80;21302;-83
2021/03/22 09:03:41;;;;;;;3.70;2.27;;;;;;;4.13;56.29;98650.75;2226197;80;21292;-82
2021/03/22 09:06:57;;;;;;;7.90;2.87;;;;;;;4.24;57.81;98650.58;2226042;80;21313;-82
2021/03/22 09:10:15;;;;;;;4.15;2.33;;;;;;;4.28;54.98;98656.29;2212594;80;21568;-83
2021/03/22 09:13:19;;;;;;;3.65;2.47;;;;;;;4.33;55.52;98663.17;2226266;80;21290;-83
2021/03/22 09:16:21;;;;;;;5.95;2.70;;;;;;;4.41;55.03;98658.59;2226186;80;21599;-83
2021/03/22 09:19:23;;;;;;;3.42;2.45;;;;;;;4.44;54.29;98666.07;2226083;80;21314;-82
2021/03/22 09:22:24;;;;;;;5.12;2.70;;;;;;;4.48;54.36;98666.11;2226120;80;22251;-82
2021/03/22 09:25:26;;;;;;;3.45;2.33;;;;;;;4.52;54.48;98671.38;2226465;80;21703;-80
2021/03/22 09:28:28;;;;;;;5.83;3.10;;;;;;;4.48;55.03;98666.96;2226176;80;21273;-80
2021/03/22 09:31:29;;;;;;;10.03;5.40;;;;;;;4.33;54.78;98666.25;2226103;80;21306;-81
2021/03/22 09:34:31;;;;;;;6.95;3.10;;;;;;;4.12;54.88;98662.56;2226176;80;21294;-81
2021/03/22 09:37:33;;;;;;;8.70;4.90;;;;;;;4.02;56.01;98663.84;2226525;80;21322;-82
2021/03/22 09:40:35;;;;;;;9.60;5.08;;;;;;;4.00;56.67;98674.35;2226193;80;21242;-82
2021/03/22 09:43:37;;;;;;;11.95;5.58;;;;;;;3.96;56.35;98671.71;2225956;80;21298;-82
2021/03/22 09:46:39;;;;;;;5.72;3.17;;;;;;;3.98;57.20;98663.80;2225525;80;21155;-83
2021/03/22 09:49:41;;;;;;;5.85;2.67;;;;;;;3.97;54.19;98675.94;2225431;80;21606;-82
2021/03/22 09:52:48;;;;;;;3.25;1.70;;;;;;;3.92;53.81;98663.05;2186595;81;21647;-82
2021/03/22 09:55:49;;;;;;;2.98;1.62;;;;;;;3.94;50.78;98683.18;2186890;81;21321;-82
2021/03/22 09:58:51;;;;;;;4.55;2.17;;;;;;;3.92;52.92;98667.75;2187024;81;21301;-82
2021/03/22 10:01:53;;;;;;;5.75;3.60;;;;;;;4.02;54.11;98656.55;2187177;81;21318;-82
2021/03/22 10:04:55;;;;;;;4.37;2.70;;;;;;;4.25;54.56;98644.91;2186826;81;21305;-84
2021/03/22 10:07:57;;;;;;;4.53;2.45;;;;;;;4.33;52.81;98654.59;2186848;81;21313;-84
2021/03/22 10:10:58;;;;;;;2.60;1.80;;;;;;;4.32;50.72;98656.84;2187020;81;21180;-83
2021/03/22 10:14:02;;;;;;;4.25;2.00;;;;;;;4.35;51.31;98656.55;2188179;81;21136;-81
2021/03/22 10:17:04;;;;;;;3.75;1.92;;;;;;;4.39;49.21;98655.30;2191569;81;21146;-83
2021/03/22 10:20:08;;;;;;;2.70;1.90;;;;;;;4.40;48.66;98650.47;2189683;81;21297;-82
2021/03/22 10:23:09;;;;;;;6.10;3.47;;;;;;;4.49;49.91;98648.33;2187902;81;21178;-83
2021/03/22 10:26:11;;;;;;;4.60;2.52;;;;;;;4.58;50.45;98640.98;2187014;81;21330;-83
2021/03/22 10:29:13;;;;;;;5.72;2.10;;;;;;;4.79;51.04;98645.94;2186924;81;21164;-82
2021/03/22 10:32:15;;;;;;;2.60;1.67;;;;;;;4.88;47.72;98654.63;2191413;81;21293;-81
2021/03/22 10:35:17;;;;;;;3.00;1.30;;;;;;;4.96;47.09;98651.65;2198764;81;21306;-80
2021/03/22 10:38:19;;;;;;;5.50;2.40;;;;;;;5.07;44.75;98659.23;2202216;81;21155;-81
2021/03/22 10:41:20;;;;;;;5.85;2.25;;;;;;;5.04;45.04;98648.33;2199648;81;21286;-81
2021/03/22 10:44:22;;;;;;;6.42;2.52;;;;;;;5.06;46.10;98656.30;2198104;81;21289;-81
2021/03/22 10:47:24;;;;;;;6.83;3.95;;;;;;;5.02;46.70;98651.05;2197432;81;21314;-81
2021/03/22 10:54:03;;;;;;;6.90;3.75;;;;;;;5.24;46.29;98639.45;2260731;78;28252;-82
2021/03/22 10:57:09;;;;;;;5.97;3.45;;;;;;;5.24;47.84;98640.75;2239620;79;21114;-82
2021/03/22 11:00:11;;;;;;;2.87;2.25;;;;;;;5.30;47.21;98636.27;2241642;79;21307;-82
2021/03/22 11:03:15;;;;;;;4.87;2.67;;;;;;;5.28;45.01;98653.75;2241525;79;21162;-82
2021/03/22 11:06:17;;;;;;;9.50;4.00;;;;;;;5.16;42.74;98650.23;2242050;79;21307;-81
2021/03/22 11:09:21;;;;;;;7.53;4.05;;;;;;;5.14;45.37;98651.68;2241371;79;21660;-81
2021/03/22 11:12:29;;;;;;;4.70;2.92;;;;;;;5.18;44.83;98653.00;2241292;79;21142;-80
2021/03/22 11:15:30;;;;;;;6.03;2.58;;;;;;;5.22;44.25;98657.45;2241400;79;21292;-81
2021/03/22 11:18:32;;;;;;;3.08;1.52;;;;;;;5.22;41.32;98663.45;2241512;79;21732;-81
2021/03/22 11:21:34;;;;;;;3.15;0.90;;;;;;;5.29;43.20;98659.77;2241209;79;21256;-81
2021/03/22 11:24:36;;;;;;;2.55;2.33;;;;;;;5.37;39.89;98667.16;2241329;79;21153;-80
2021/03/22 11:27:39;;;;;;;4.58;1.75;;;;;;;5.37;40.27;98661.14;2241224;79;21316;-81
2021/03/22 11:30:40;;;;;;;3.05;1.65;;;;;;;5.24;41.46;98640.75;2241534;79;21291;-82
2021/03/22 11:33:44;;;;;;;5.03;2.10;;;;;;;5.22;41.24;98641.38;2241333;79;21280;-81
2021/03/22 11:36:46;;;;;;;4.12;2.17;;;;;;;5.35;42.02;98634.03;2241339;79;21716;-83
2021/03/22 11:39:48;;;;;;;1.55;1.45;;;;;;;5.69;39.99;98631.58;2241496;79;21137;-81
2021/03/22 11:42:49;;;;;;;5.33;2.30;;;;;;;5.88;40.02;98629.28;2241393;79;21197;-82
2021/03/22 11:45:53;;;;;;;3.42;1.75;;;;;;;5.91;39.88;98640.69;2240790;79;21238;-82
2021/03/22 11:48:55;;;;;;;4.03;1.98;;;;;;;5.70;39.13;98638.89;2241338;79;21299;-82
2021/03/22 11:51:56;;;;;;;4.28;1.30;;;;;;;5.34;40.03;98660.97;2241257;78;21134;-83
2021/03/22 11:55:00;;;;;;;4.33;2.25;;;;;;;5.09;40.38;98644.80;2241650;79;21719;-82
2021/03/22 11:58:02;;;;;;;3.75;2.92;;;;;;;4.88;40.95;98646.36;2241448;79;21272;-82
2021/03/22 12:01:04;;;;;;;5.50;1.70;;;;;;;4.89;42.00;98644.10;2241857;79;21269;-82
2021/03/22 12:04:06;;;;;;;3.33;1.87;;;;;;;4.89;40.94;98646.70;2240907;79;21121;-82
2021/03/22 12:07:08;;;;;;;3.17;2.50;;;;;;;4.86;40.48;98650.89;2240784;79;21320;-82
2021/03/22 12:10:09;;;;;;;6.58;2.20;;;;;;;4.85;41.19;98638.40;2240601;79;21161;-83
2021/03/22 12:13:13;;;;;;;1.70;1.60;;;;;;;4.96;41.86;98630.89;2240488;79;21190;-82
2021/03/22 12:16:15;;;;;;;7.40;2.80;;;;;;;5.14;42.38;98623.94;2240554;79;21158;-84
2021/03/22 12:19:16;;;;;;;5.62;2.50;;;;;;;5.37;42.49;98624.80;2240451;79;21106;-83
2021/03/22 12:22:18;;;;;;;2.92;2.12;;;;;;;5.46;40.91;98636.88;2240830;79;21685;-83
2021/03/22 12:25:20;;;;;;;6.70;2.83;;;;;;;5.54;41.83;98653.84;2240568;79;21170;-83
2021/03/22 12:28:22;;;;;;;6.25;4.20;;;;;;;5.54;44.14;98667.31;2240435;79;21307;-83
2021/03/22 12:31:28;;;;;;;4.12;3.10;;;;;;;5.37;44.93;98663.74;2240376;79;21182;-84
2021/03/22 12:34:34;;;;;;;7.08;4.10;;;;;;;5.18;45.45;98651.70;2240558;79;21716;-83
2021/03/22 12:37:37;;;;;;;6.05;3.50;;;;;;;5.09;45.74;98666.86;2240622;79;21150;-82
2021/03/22 12:40:40;;;;;;;7.33;4.20;;;;;;;5.04;46.10;98676.40;2239293;79;21154;-83
2021/03/22 12:43:42;;;;;;;10.08;4.97;;;;;;;5.00;46.17;98662.06;2241098;79;21300;-82
2021/03/22 12:46:44;;;;;;;9.13;4.92;;;;;;;4.98;45.46;98667.06;2240571;79;21252;-83
2021/03/22 12:49:45;;;;;;;13.72;6.28;;;;;;;4.90;45.68;98657.89;2240365;79;21264;-83
2021/03/22 12:52:47;;;;;;;9.53;4.78;;;;;;;4.88;46.23;98655.45;2240451;79;21197;-82
2021/03/22 12:55:49;;;;;;;8.23;5.67;;;;;;;4.89;45.54;98656.26;2240281;79;21682;-82
2021/03/22 12:58:51;;;;;;;9.45;5.45;;;;;;;4.87;45.20;98652.52;2240302;79;21169;-83
2021/03/22 13:01:52;;;;;;;5.65;3.52;;;;;;;4.87;44.71;98652.52;2240484;79;21296;-82
2021/03/22 13:04:54;;;;;;;5.87;4.17;;;;;;;4.89;44.19;98651.89;2240778;79;21277;-83
2021/03/22 13:07:56;;;;;;;7.62;4.65;;;;;;;4.98;44.97;98647.13;2240851;79;21287;-82
2021/03/22 13:10:58;;;;;;;8.20;5.65;;;;;;;5.19;45.49;98633.05;2241993;79;21830;-82
2021/03/22 13:14:00;;;;;;;15.23;6.50;;;;;;;5.31;44.90;98631.41;2244860;79;21252;-81
2021/03/22 13:17:02;;;;;;;9.58;5.12;;;;;;;5.34;44.84;98637.59;2242371;79;21315;-82
2021/03/22 13:20:14;;;;;;;;;;;;;;;;;;;;;
2021/03/22 13:23:10;;;;;;;11.53;6.25;;;;;;;5.15;46.28;98649.42;2229748;79;21134;-82
2021/03/22 13:26:12;;;;;;;12.13;6.08;;;;;;;5.06;47.81;98645.11;2240586;79;21719;-83
2021/03/22 13:29:16;;;;;;;7.60;5.30;;;;;;;4.96;48.41;98626.19;2241336;79;22149;-81
2021/03/22 13:32:18;;;;;;;10.65;5.87;;;;;;;4.91;48.90;98640.88;2241712;79;21272;-80
2021/03/22 13:35:20;;;;;;;7.87;4.83;;;;;;;4.90;49.04;98638.43;2245345;79;21102;-83
2021/03/22 13:38:22;;;;;;;11.90;6.17;;;;;;;4.97;48.18;98643.38;2243437;79;21165;-83
2021/03/22 13:41:25;;;;;;;8.95;4.87;;;;;;;5.06;48.33;98636.84;2240875;79;21202;-83
2021/03/22 13:44:27;;;;;;;8.23;5.20;;;;;;;5.19;48.11;98624.78;2240979;79;21178;-82
2021/03/22 13:47:28;;;;;;;7.20;5.50;;;;;;;5.40;47.10;98637.50;2241179;79;21141;-84
2021/03/22 13:50:30;;;;;;;10.75;5.67;;;;;;;5.57;47.29;98629.34;2240518;79;21144;-82
2021/03/22 13:53:32;;;;;;;7.70;5.33;;;;;;;5.75;47.44;98641.02;2240550;79;21296;-83
2021/03/22 13:56:33;;;;;;;9.43;5.83;;;;;;;5.88;46.90;98638.38;2240717;79;21311;-82
2021/03/22 13:59:35;;;;;;;11.22;6.25;;;;;;;5.89;45.24;98647.80;2240647;79;21313;-82
2021/03/22 14:02:37;;;;;;;8.65;5.62;;;;;;;5.86;45.18;98656.39;2240510;79;21743;-82
2021/03/22 14:05:38;;;;;;;10.95;5.75;;;;;;;5.80;44.50;98658.28;2240722;79;21130;-82
2021/03/22 14:08:40;;;;;;;11.10;6.22;;;;;;;5.78;45.64;98644.64;2240618;79;21264;-82
2021/03/22 14:11:42;;;;;;;2.80;2.20;;;;;;;5.72;44.53;98679.81;2240704;79;21276;-82
2021/03/22 14:14:46;;;;;;;14.20;6.20;;;;;;;5.48;42.04;98668.70;2240747;79;21126;-82
2021/03/22 14:17:47;;;;;;;11.25;6.42;;;;;;;5.26;44.94;98685.55;2240675;79;21638;-82
2021/03/22 14:20:49;;;;;;;13.62;7.33;;;;;;;4.90;48.46;98703.30;2240718;79;21177;-82
2021/03/22 14:23:51;;;;;;;7.35;4.08;;;;;;;4.50;51.94;98697.45;2240435;79;21312;-81